sensor_id;sensor_type;location;lat;lon;timestamp;temperature;humidity
81951;DHT22;71452;52.562;5.642;2023-08-31T00:01:03;15.20;68.20
81951;DHT22;71452;52.562;5.642;2023-08-31T00:03:32;15.20;68.30
81951;DHT22;71452;52.562;5.642;2023-08-31T00:06:04;15.20;68.70
81951;DHT22;71452;52.562;5.642;2023-08-31T00:08:34;15.10;68.90
81951;DHT22;71452;52.562;5.642;2023-08-31T00:11:03;15.00;68.60
81951;DHT22;71452;52.562;5.642;2023-08-31T00:13:32;14.80;68.70
81951;DHT22;71452;52.562;5.642;2023-08-31T00:16:01;14.70;68.60
81951;DHT22;71452;52.562;5.642;2023-08-31T00:18:31;14.60;68.80
81951;DHT22;71452;52.562;5.642;2023-08-31T00:21:04;14.50;68.80
81951;DHT22;71452;52.562;5.642;2023-08-31T00:23:34;14.50;68.90
81951;DHT22;71452;52.562;5.642;2023-08-31T00:26:03;14.50;68.90
81951;DHT22;71452;52.562;5.642;2023-08-31T00:28:33;14.40;68.90
81951;DHT22;71452;52.562;5.642;2023-08-31T00:31:02;14.40;68.90
81951;DHT22;71452;52.562;5.642;2023-08-31T00:33:32;14.30;69.10
81951;DHT22;71452;52.562;5.642;2023-08-31T00:36:04;14.20;69.20
81951;DHT22;71452;52.562;5.642;2023-08-31T00:38:33;14.20;69.50
81951;DHT22;71452;52.562;5.642;2023-08-31T00:41:03;14.20;69.80
81951;DHT22;71452;52.562;5.642;2023-08-31T00:43:32;14.20;70.00
81951;DHT22;71452;52.562;5.642;2023-08-31T00:46:01;14.10;70.30
81951;DHT22;71452;52.562;5.642;2023-08-31T00:48:30;14.20;70.30
81951;DHT22;71452;52.562;5.642;2023-08-31T00:50:59;14.20;70.30
81951;DHT22;71452;52.562;5.642;2023-08-31T00:53:31;14.20;70.30
81951;DHT22;71452;52.562;5.642;2023-08-31T00:56:01;14.20;70.30
81951;DHT22;71452;52.562;5.642;2023-08-31T00:58:30;14.30;70.40
81951;DHT22;71452;52.562;5.642;2023-08-31T01:01:08;14.30;70.50
81951;DHT22;71452;52.562;5.642;2023-08-31T01:03:54;14.30;70.50
81951;DHT22;71452;52.562;5.642;2023-08-31T01:06:36;14.30;70.70
81951;DHT22;71452;52.562;5.642;2023-08-31T01:09:16;14.30;70.80
81951;DHT22;71452;52.562;5.642;2023-08-31T01:11:56;14.30;70.80
81951;DHT22;71452;52.562;5.642;2023-08-31T01:14:34;14.30;70.90
81951;DHT22;71452;52.562;5.642;2023-08-31T01:17:05;14.30;71.00
81951;DHT22;71452;52.562;5.642;2023-08-31T01:19:44;14.30;70.90
81951;DHT22;71452;52.562;5.642;2023-08-31T01:22:27;14.30;71.00
81951;DHT22;71452;52.562;5.642;2023-08-31T01:25:01;14.30;71.00
81951;DHT22;71452;52.562;5.642;2023-08-31T01:27:31;14.40;70.90
81951;DHT22;71452;52.562;5.642;2023-08-31T01:30:00;14.40;70.90
81951;DHT22;71452;52.562;5.642;2023-08-31T01:32:31;14.30;71.00
81951;DHT22;71452;52.562;5.642;2023-08-31T01:35:01;14.30;71.00
81951;DHT22;71452;52.562;5.642;2023-08-31T01:37:36;14.30;71.20
81951;DHT22;71452;52.562;5.642;2023-08-31T01:40:14;14.30;71.40
81951;DHT22;71452;52.562;5.642;2023-08-31T01:42:46;14.30;71.50
81951;DHT22;71452;52.562;5.642;2023-08-31T01:45:19;14.30;71.50
81951;DHT22;71452;52.562;5.642;2023-08-31T01:47:49;14.30;71.50
81951;DHT22;71452;52.562;5.642;2023-08-31T01:50:18;14.30;71.60
81951;DHT22;71452;52.562;5.642;2023-08-31T01:52:47;14.30;71.70
81951;DHT22;71452;52.562;5.642;2023-08-31T01:55:19;14.30;71.80
81951;DHT22;71452;52.562;5.642;2023-08-31T01:57:48;14.20;71.80
81951;DHT22;71452;52.562;5.642;2023-08-31T02:00:21;14.20;72.10
81951;DHT22;71452;52.562;5.642;2023-08-31T02:02:50;14.20;72.20
81951;DHT22;71452;52.562;5.642;2023-08-31T02:05:19;14.20;72.30
81951;DHT22;71452;52.562;5.642;2023-08-31T02:07:48;14.10;72.30
81951;DHT22;71452;52.562;5.642;2023-08-31T02:10:20;14.10;72.30
81951;DHT22;71452;52.562;5.642;2023-08-31T02:12:49;14.10;72.30
81951;DHT22;71452;52.562;5.642;2023-08-31T02:15:18;14.10;72.20
81951;DHT22;71452;52.562;5.642;2023-08-31T02:17:47;14.10;72.30
81951;DHT22;71452;52.562;5.642;2023-08-31T02:20:16;14.10;72.30
81951;DHT22;71452;52.562;5.642;2023-08-31T02:22:46;14.10;72.20
81951;DHT22;71452;52.562;5.642;2023-08-31T02:25:16;14.10;72.20
81951;DHT22;71452;52.562;5.642;2023-08-31T02:27:49;14.10;72.10
81951;DHT22;71452;52.562;5.642;2023-08-31T02:30:18;14.10;72.00
81951;DHT22;71452;52.562;5.642;2023-08-31T02:32:47;14.00;72.10
81951;DHT22;71452;52.562;5.642;2023-08-31T02:35:16;14.00;72.10
81951;DHT22;71452;52.562;5.642;2023-08-31T02:37:45;13.90;72.20
81951;DHT22;71452;52.562;5.642;2023-08-31T02:40:14;13.90;72.20
81951;DHT22;71452;52.562;5.642;2023-08-31T02:42:43;13.90;72.20
81951;DHT22;71452;52.562;5.642;2023-08-31T02:45:17;13.90;72.20
81951;DHT22;71452;52.562;5.642;2023-08-31T02:47:46;13.90;72.20
81951;DHT22;71452;52.562;5.642;2023-08-31T02:50:17;13.90;72.20
81951;DHT22;71452;52.562;5.642;2023-08-31T02:52:46;13.90;72.30
81951;DHT22;71452;52.562;5.642;2023-08-31T02:55:15;13.90;72.30
81951;DHT22;71452;52.562;5.642;2023-08-31T02:57:44;13.90;72.20
81951;DHT22;71452;52.562;5.642;2023-08-31T03:00:16;13.90;72.20
81951;DHT22;71452;52.562;5.642;2023-08-31T03:02:47;13.90;72.30
81951;DHT22;71452;52.562;5.642;2023-08-31T03:05:18;13.90;72.30
81951;DHT22;71452;52.562;5.642;2023-08-31T03:07:47;13.90;72.30
81951;DHT22;71452;52.562;5.642;2023-08-31T03:10:16;13.90;72.30
81951;DHT22;71452;52.562;5.642;2023-08-31T03:12:45;13.90;72.30
81951;DHT22;71452;52.562;5.642;2023-08-31T03:15:18;13.90;72.50
81951;DHT22;71452;52.562;5.642;2023-08-31T03:17:47;13.90;72.40
81951;DHT22;71452;52.562;5.642;2023-08-31T03:20:17;13.90;72.30
81951;DHT22;71452;52.562;5.642;2023-08-31T03:22:46;13.90;72.50
81951;DHT22;71452;52.562;5.642;2023-08-31T03:25:15;13.90;72.40
81951;DHT22;71452;52.562;5.642;2023-08-31T03:27:44;13.90;72.50
81951;DHT22;71452;52.562;5.642;2023-08-31T03:30:13;13.90;72.60
81951;DHT22;71452;52.562;5.642;2023-08-31T03:32:45;13.90;72.60
81951;DHT22;71452;52.562;5.642;2023-08-31T03:35:14;13.90;72.70
81951;DHT22;71452;52.562;5.642;2023-08-31T03:37:46;14.00;72.70
81951;DHT22;71452;52.562;5.642;2023-08-31T03:40:16;14.00;72.70
81951;DHT22;71452;52.562;5.642;2023-08-31T03:42:45;14.00;72.80
81951;DHT22;71452;52.562;5.642;2023-08-31T03:45:14;14.00;72.80
81951;DHT22;71452;52.562;5.642;2023-08-31T03:47:46;14.00;72.90
81951;DHT22;71452;52.562;5.642;2023-08-31T03:50:16;14.10;73.00
81951;DHT22;71452;52.562;5.642;2023-08-31T03:52:47;14.10;73.20
81951;DHT22;71452;52.562;5.642;2023-08-31T03:55:15;14.10;73.20
81951;DHT22;71452;52.562;5.642;2023-08-31T03:57:45;14.20;73.30
81951;DHT22;71452;52.562;5.642;2023-08-31T04:00:20;14.20;73.30
81951;DHT22;71452;52.562;5.642;2023-08-31T04:02:51;14.20;73.30
81951;DHT22;71452;52.562;5.642;2023-08-31T04:05:24;14.20;73.40
81951;DHT22;71452;52.562;5.642;2023-08-31T04:07:53;14.20;73.40
81951;DHT22;71452;52.562;5.642;2023-08-31T04:10:22;14.20;73.40
81951;DHT22;71452;52.562;5.642;2023-08-31T04:12:52;14.20;73.50
81951;DHT22;71452;52.562;5.642;2023-08-31T04:15:21;14.20;73.40
81951;DHT22;71452;52.562;5.642;2023-08-31T04:17:53;14.20;73.50
81951;DHT22;71452;52.562;5.642;2023-08-31T04:20:22;14.20;73.50
81951;DHT22;71452;52.562;5.642;2023-08-31T04:22:51;14.20;73.50
81951;DHT22;71452;52.562;5.642;2023-08-31T04:25:20;14.20;73.60
81951;DHT22;71452;52.562;5.642;2023-08-31T04:27:49;14.10;73.50
81951;DHT22;71452;52.562;5.642;2023-08-31T04:30:18;14.20;73.50
81951;DHT22;71452;52.562;5.642;2023-08-31T04:32:47;14.20;73.40
81951;DHT22;71452;52.562;5.642;2023-08-31T04:35:19;14.20;73.50
81951;DHT22;71452;52.562;5.642;2023-08-31T04:37:48;14.20;73.50
81951;DHT22;71452;52.562;5.642;2023-08-31T04:40:17;14.20;73.30
81951;DHT22;71452;52.562;5.642;2023-08-31T04:42:46;14.20;73.40
81951;DHT22;71452;52.562;5.642;2023-08-31T04:45:15;14.20;73.40
81951;DHT22;71452;52.562;5.642;2023-08-31T04:47:44;14.20;73.40
81951;DHT22;71452;52.562;5.642;2023-08-31T04:50:15;14.20;73.30
81951;DHT22;71452;52.562;5.642;2023-08-31T04:52:47;14.20;73.40
81951;DHT22;71452;52.562;5.642;2023-08-31T04:55:16;14.20;73.40
81951;DHT22;71452;52.562;5.642;2023-08-31T04:57:45;14.20;73.50
81951;DHT22;71452;52.562;5.642;2023-08-31T05:00:15;14.20;73.60
81951;DHT22;71452;52.562;5.642;2023-08-31T05:02:44;14.20;73.70
81951;DHT22;71452;52.562;5.642;2023-08-31T05:05:13;14.20;73.80
81951;DHT22;71452;52.562;5.642;2023-08-31T05:07:46;14.20;73.90
81951;DHT22;71452;52.562;5.642;2023-08-31T05:10:16;14.20;73.90
81951;DHT22;71452;52.562;5.642;2023-08-31T05:12:45;14.20;74.00
81951;DHT22;71452;52.562;5.642;2023-08-31T05:15:14;14.20;74.00
81951;DHT22;71452;52.562;5.642;2023-08-31T05:17:43;14.30;74.10
81951;DHT22;71452;52.562;5.642;2023-08-31T05:20:13;14.30;74.10
81951;DHT22;71452;52.562;5.642;2023-08-31T05:22:43;14.30;74.00
81951;DHT22;71452;52.562;5.642;2023-08-31T05:25:15;14.20;74.10
81951;DHT22;71452;52.562;5.642;2023-08-31T05:27:44;14.20;74.10
81951;DHT22;71452;52.562;5.642;2023-08-31T05:30:11;14.20;74.10
81951;DHT22;71452;52.562;5.642;2023-08-31T05:32:40;14.20;73.90
81951;DHT22;71452;52.562;5.642;2023-08-31T05:35:09;14.20;73.90
81951;DHT22;71452;52.562;5.642;2023-08-31T05:37:38;14.20;73.90
81951;DHT22;71452;52.562;5.642;2023-08-31T05:40:09;14.20;73.90
81951;DHT22;71452;52.562;5.642;2023-08-31T05:42:41;14.20;73.80
81951;DHT22;71452;52.562;5.642;2023-08-31T05:45:10;14.20;73.90
81951;DHT22;71452;52.562;5.642;2023-08-31T05:47:41;14.20;73.90
81951;DHT22;71452;52.562;5.642;2023-08-31T05:50:10;14.30;73.90
81951;DHT22;71452;52.562;5.642;2023-08-31T05:52:39;14.30;73.80
81951;DHT22;71452;52.562;5.642;2023-08-31T05:55:10;14.30;73.90
81951;DHT22;71452;52.562;5.642;2023-08-31T05:57:41;14.30;74.00
81951;DHT22;71452;52.562;5.642;2023-08-31T06:00:11;14.40;74.30
81951;DHT22;71452;52.562;5.642;2023-08-31T06:02:42;14.60;74.30
81951;DHT22;71452;52.562;5.642;2023-08-31T06:05:11;14.80;74.10
81951;DHT22;71452;52.562;5.642;2023-08-31T06:07:42;15.00;74.00
81951;DHT22;71452;52.562;5.642;2023-08-31T06:10:11;15.20;73.90
81951;DHT22;71452;52.562;5.642;2023-08-31T06:12:43;15.30;73.60
81951;DHT22;71452;52.562;5.642;2023-08-31T06:15:12;15.40;73.30
81951;DHT22;71452;52.562;5.642;2023-08-31T06:17:41;15.40;73.30
81951;DHT22;71452;52.562;5.642;2023-08-31T06:20:13;15.30;73.20
81951;DHT22;71452;52.562;5.642;2023-08-31T06:22:42;15.20;73.40
81951;DHT22;71452;52.562;5.642;2023-08-31T06:25:11;15.20;73.60
81951;DHT22;71452;52.562;5.642;2023-08-31T06:27:44;15.20;73.60
81951;DHT22;71452;52.562;5.642;2023-08-31T06:30:13;15.20;73.90
81951;DHT22;71452;52.562;5.642;2023-08-31T06:32:45;15.30;73.90
81951;DHT22;71452;52.562;5.642;2023-08-31T06:35:16;15.40;74.30
81951;DHT22;71452;52.562;5.642;2023-08-31T06:37:45;15.50;74.10
81951;DHT22;71452;52.562;5.642;2023-08-31T06:40:16;15.60;73.60
81951;DHT22;71452;52.562;5.642;2023-08-31T06:42:48;15.70;73.10
81951;DHT22;71452;52.562;5.642;2023-08-31T06:45:17;15.70;73.10
81951;DHT22;71452;52.562;5.642;2023-08-31T06:47:46;15.60;73.10
81951;DHT22;71452;52.562;5.642;2023-08-31T06:50:15;15.60;73.20
81951;DHT22;71452;52.562;5.642;2023-08-31T06:52:44;15.60;73.30
81951;DHT22;71452;52.562;5.642;2023-08-31T06:55:14;15.60;73.60
81951;DHT22;71452;52.562;5.642;2023-08-31T06:57:43;15.60;73.60
81951;DHT22;71452;52.562;5.642;2023-08-31T07:00:15;15.60;74.00
81951;DHT22;71452;52.562;5.642;2023-08-31T07:02:44;15.80;73.80
81951;DHT22;71452;52.562;5.642;2023-08-31T07:05:13;15.80;73.40
81951;DHT22;71452;52.562;5.642;2023-08-31T07:07:42;15.80;73.20
81951;DHT22;71452;52.562;5.642;2023-08-31T07:10:11;15.90;73.30
81951;DHT22;71452;52.562;5.642;2023-08-31T07:12:40;16.00;73.40
81951;DHT22;71452;52.562;5.642;2023-08-31T07:15:09;16.10;73.40
81951;DHT22;71452;52.562;5.642;2023-08-31T07:17:41;16.40;73.60
81951;DHT22;71452;52.562;5.642;2023-08-31T07:20:11;16.60;72.70
81951;DHT22;71452;52.562;5.642;2023-08-31T07:22:40;16.80;72.00
81951;DHT22;71452;52.562;5.642;2023-08-31T07:25:09;17.00;71.70
81951;DHT22;71452;52.562;5.642;2023-08-31T07:27:38;17.20;71.40
81951;DHT22;71452;52.562;5.642;2023-08-31T07:30:08;17.20;70.70
81951;DHT22;71452;52.562;5.642;2023-08-31T07:32:37;17.20;70.00
81951;DHT22;71452;52.562;5.642;2023-08-31T07:35:09;17.20;70.10
81951;DHT22;71452;52.562;5.642;2023-08-31T07:37:38;17.20;70.80
81951;DHT22;71452;52.562;5.642;2023-08-31T07:40:08;17.40;70.80
81951;DHT22;71452;52.562;5.642;2023-08-31T07:42:38;17.50;70.90
81951;DHT22;71452;52.562;5.642;2023-08-31T07:45:09;17.60;70.20
81951;DHT22;71452;52.562;5.642;2023-08-31T07:47:38;17.60;69.40
81951;DHT22;71452;52.562;5.642;2023-08-31T07:50:10;17.50;69.10
81951;DHT22;71452;52.562;5.642;2023-08-31T07:52:40;17.30;69.50
81951;DHT22;71452;52.562;5.642;2023-08-31T07:55:09;17.20;70.00
81951;DHT22;71452;52.562;5.642;2023-08-31T07:57:38;17.10;70.40
81951;DHT22;71452;52.562;5.642;2023-08-31T08:00:08;17.10;70.10
81951;DHT22;71452;52.562;5.642;2023-08-31T08:02:41;17.00;70.30
81951;DHT22;71452;52.562;5.642;2023-08-31T08:05:12;17.00;70.50
81951;DHT22;71452;52.562;5.642;2023-08-31T08:07:41;16.90;70.80
81951;DHT22;71452;52.562;5.642;2023-08-31T08:10:11;16.90;70.90
81951;DHT22;71452;52.562;5.642;2023-08-31T08:12:42;16.90;71.10
81951;DHT22;71452;52.562;5.642;2023-08-31T08:15:13;16.90;71.60
81951;DHT22;71452;52.562;5.642;2023-08-31T08:17:42;17.00;71.40
81951;DHT22;71452;52.562;5.642;2023-08-31T08:20:15;17.00;71.30
81951;DHT22;71452;52.562;5.642;2023-08-31T08:22:44;17.10;71.30
81951;DHT22;71452;52.562;5.642;2023-08-31T08:25:14;17.20;71.10
81951;DHT22;71452;52.562;5.642;2023-08-31T08:27:43;17.30;70.60
81951;DHT22;71452;52.562;5.642;2023-08-31T08:30:12;17.40;70.50
81951;DHT22;71452;52.562;5.642;2023-08-31T08:32:41;17.50;69.90
81951;DHT22;71452;52.562;5.642;2023-08-31T08:35:10;17.60;70.00
81951;DHT22;71452;52.562;5.642;2023-08-31T08:37:42;17.80;69.70
81951;DHT22;71452;52.562;5.642;2023-08-31T08:40:11;18.00;68.80
81951;DHT22;71452;52.562;5.642;2023-08-31T08:42:42;18.10;69.30
81951;DHT22;71452;52.562;5.642;2023-08-31T08:45:14;18.30;69.00
81951;DHT22;71452;52.562;5.642;2023-08-31T08:47:44;18.50;68.50
81951;DHT22;71452;52.562;5.642;2023-08-31T08:50:13;18.60;67.80
81951;DHT22;71452;52.562;5.642;2023-08-31T08:52:45;18.60;67.50
81951;DHT22;71452;52.562;5.642;2023-08-31T08:55:15;18.70;67.30
81951;DHT22;71452;52.562;5.642;2023-08-31T08:57:45;18.80;67.20
81951;DHT22;71452;52.562;5.642;2023-08-31T09:00:15;18.90;66.40
81951;DHT22;71452;52.562;5.642;2023-08-31T09:02:44;19.00;66.20
81951;DHT22;71452;52.562;5.642;2023-08-31T09:05:13;19.00;65.80
81951;DHT22;71452;52.562;5.642;2023-08-31T09:08:02;19.00;66.60
81951;DHT22;71452;52.562;5.642;2023-08-31T09:10:34;19.20;66.80
81951;DHT22;71452;52.562;5.642;2023-08-31T09:13:09;19.30;66.10
81951;DHT22;71452;52.562;5.642;2023-08-31T09:15:42;19.40;65.70
81951;DHT22;71452;52.562;5.642;2023-08-31T09:18:14;19.40;65.30
81951;DHT22;71452;52.562;5.642;2023-08-31T09:20:45;19.30;64.80
81951;DHT22;71452;52.562;5.642;2023-08-31T09:23:17;19.30;65.60
81951;DHT22;71452;52.562;5.642;2023-08-31T09:25:47;19.50;65.50
81951;DHT22;71452;52.562;5.642;2023-08-31T09:28:18;19.50;65.20
81951;DHT22;71452;52.562;5.642;2023-08-31T09:30:48;19.70;63.70
81951;DHT22;71452;52.562;5.642;2023-08-31T09:33:19;19.70;63.50
81951;DHT22;71452;52.562;5.642;2023-08-31T09:35:50;19.50;64.00
81951;DHT22;71452;52.562;5.642;2023-08-31T09:38:22;19.50;63.90
81951;DHT22;71452;52.562;5.642;2023-08-31T09:40:51;19.50;64.10
81951;DHT22;71452;52.562;5.642;2023-08-31T09:43:22;19.40;64.20
81951;DHT22;71452;52.562;5.642;2023-08-31T09:45:52;19.30;64.10
81951;DHT22;71452;52.562;5.642;2023-08-31T09:48:22;19.20;62.50
81951;DHT22;71452;52.562;5.642;2023-08-31T09:50:52;19.00;63.40
81951;DHT22;71452;52.562;5.642;2023-08-31T09:53:29;18.90;64.30
81951;DHT22;71452;52.562;5.642;2023-08-31T09:55:58;19.00;65.10
81951;DHT22;71452;52.562;5.642;2023-08-31T09:58:29;19.10;65.40
81951;DHT22;71452;52.562;5.642;2023-08-31T10:00:59;19.30;65.40
81951;DHT22;71452;52.562;5.642;2023-08-31T10:03:28;19.50;64.20
81951;DHT22;71452;52.562;5.642;2023-08-31T10:05:58;19.70;63.10
81951;DHT22;71452;52.562;5.642;2023-08-31T10:08:33;19.90;63.50
81951;DHT22;71452;52.562;5.642;2023-08-31T10:11:04;20.00;63.00
81951;DHT22;71452;52.562;5.642;2023-08-31T10:13:36;20.10;62.90
81951;DHT22;71452;52.562;5.642;2023-08-31T10:16:07;20.30;63.00
81951;DHT22;71452;52.562;5.642;2023-08-31T10:18:36;20.30;62.60
81951;DHT22;71452;52.562;5.642;2023-08-31T10:21:05;20.50;61.50
81951;DHT22;71452;52.562;5.642;2023-08-31T10:23:44;20.60;61.00
81951;DHT22;71452;52.562;5.642;2023-08-31T10:26:22;20.60;60.70
81951;DHT22;71452;52.562;5.642;2023-08-31T10:28:52;20.60;60.50
81951;DHT22;71452;52.562;5.642;2023-08-31T10:31:21;20.50;61.30
81951;DHT22;71452;52.562;5.642;2023-08-31T10:33:58;20.30;61.40
81951;DHT22;71452;52.562;5.642;2023-08-31T10:36:36;20.30;61.70
81951;DHT22;71452;52.562;5.642;2023-08-31T10:39:13;20.20;61.50
81951;DHT22;71452;52.562;5.642;2023-08-31T10:41:52;20.20;61.30
81951;DHT22;71452;52.562;5.642;2023-08-31T10:44:22;20.30;60.90
81951;DHT22;71452;52.562;5.642;2023-08-31T10:46:52;20.50;60.90
81951;DHT22;71452;52.562;5.642;2023-08-31T10:49:22;20.60;61.40
81951;DHT22;71452;52.562;5.642;2023-08-31T10:51:54;20.80;60.70
81951;DHT22;71452;52.562;5.642;2023-08-31T10:54:30;21.00;58.70
81951;DHT22;71452;52.562;5.642;2023-08-31T10:57:02;21.10;58.10
81951;DHT22;71452;52.562;5.642;2023-08-31T10:59:47;21.00;58.10
81951;DHT22;71452;52.562;5.642;2023-08-31T11:02:30;20.70;59.20
81951;DHT22;71452;52.562;5.642;2023-08-31T11:05:01;20.50;60.50
81951;DHT22;71452;52.562;5.642;2023-08-31T11:07:32;20.30;60.80
81951;DHT22;71452;52.562;5.642;2023-08-31T11:10:15;20.30;60.90
81951;DHT22;71452;52.562;5.642;2023-08-31T11:12:46;20.30;59.90
81951;DHT22;71452;52.562;5.642;2023-08-31T11:15:17;20.40;60.10
81951;DHT22;71452;52.562;5.642;2023-08-31T11:17:49;20.50;60.10
81951;DHT22;71452;52.562;5.642;2023-08-31T11:20:19;20.50;60.40
81951;DHT22;71452;52.562;5.642;2023-08-31T11:22:50;20.70;60.10
81951;DHT22;71452;52.562;5.642;2023-08-31T11:25:22;20.70;58.80
81951;DHT22;71452;52.562;5.642;2023-08-31T11:27:55;20.80;58.40
81951;DHT22;71452;52.562;5.642;2023-08-31T11:30:25;20.90;58.90
81951;DHT22;71452;52.562;5.642;2023-08-31T11:32:55;21.00;58.90
81951;DHT22;71452;52.562;5.642;2023-08-31T11:35:31;21.00;58.70
81951;DHT22;71452;52.562;5.642;2023-08-31T11:38:02;20.80;58.30
81951;DHT22;71452;52.562;5.642;2023-08-31T11:40:34;20.70;58.90
81951;DHT22;71452;52.562;5.642;2023-08-31T11:43:05;20.80;58.50
81951;DHT22;71452;52.562;5.642;2023-08-31T11:45:34;21.00;58.00
81951;DHT22;71452;52.562;5.642;2023-08-31T11:48:05;21.10;58.00
81951;DHT22;71452;52.562;5.642;2023-08-31T11:50:35;21.20;56.80
81951;DHT22;71452;52.562;5.642;2023-08-31T11:53:05;21.20;57.10
81951;DHT22;71452;52.562;5.642;2023-08-31T11:55:49;21.30;56.80
81951;DHT22;71452;52.562;5.642;2023-08-31T11:58:19;21.40;56.50
81951;DHT22;71452;52.562;5.642;2023-08-31T12:00:57;21.40;56.10
81951;DHT22;71452;52.562;5.642;2023-08-31T12:03:27;21.10;56.30
81951;DHT22;71452;52.562;5.642;2023-08-31T12:05:56;21.00;56.90
81951;DHT22;71452;52.562;5.642;2023-08-31T12:08:25;20.90;57.50
81951;DHT22;71452;52.562;5.642;2023-08-31T12:11:00;21.00;57.80
81951;DHT22;71452;52.562;5.642;2023-08-31T12:13:29;21.10;57.20
81951;DHT22;71452;52.562;5.642;2023-08-31T12:15:58;21.30;57.50
81951;DHT22;71452;52.562;5.642;2023-08-31T12:18:29;21.40;56.40
81951;DHT22;71452;52.562;5.642;2023-08-31T12:20:59;21.30;56.20
81951;DHT22;71452;52.562;5.642;2023-08-31T12:23:29;21.30;55.80
81951;DHT22;71452;52.562;5.642;2023-08-31T12:26:01;21.20;56.10
81951;DHT22;71452;52.562;5.642;2023-08-31T12:28:31;21.10;56.70
81951;DHT22;71452;52.562;5.642;2023-08-31T12:31:00;20.90;57.10
81951;DHT22;71452;52.562;5.642;2023-08-31T12:33:30;20.80;56.90
81951;DHT22;71452;52.562;5.642;2023-08-31T12:35:59;20.70;57.20
81951;DHT22;71452;52.562;5.642;2023-08-31T12:38:28;20.90;57.00
81951;DHT22;71452;52.562;5.642;2023-08-31T12:40:57;21.00;57.30
81951;DHT22;71452;52.562;5.642;2023-08-31T12:43:30;21.20;57.00
81951;DHT22;71452;52.562;5.642;2023-08-31T12:46:00;21.40;56.30
81951;DHT22;71452;52.562;5.642;2023-08-31T12:48:32;21.50;56.20
81951;DHT22;71452;52.562;5.642;2023-08-31T12:51:01;21.60;56.60
81951;DHT22;71452;52.562;5.642;2023-08-31T12:53:30;21.70;55.00
81951;DHT22;71452;52.562;5.642;2023-08-31T12:55:59;21.70;55.10
81951;DHT22;71452;52.562;5.642;2023-08-31T12:58:31;21.80;54.70
81951;DHT22;71452;52.562;5.642;2023-08-31T13:01:00;21.70;55.00
81951;DHT22;71452;52.562;5.642;2023-08-31T13:03:29;21.70;54.90
81951;DHT22;71452;52.562;5.642;2023-08-31T13:05:58;21.80;54.90
81951;DHT22;71452;52.562;5.642;2023-08-31T13:08:27;21.90;55.00
81951;DHT22;71452;52.562;5.642;2023-08-31T13:10:56;21.90;54.70
81951;DHT22;71452;52.562;5.642;2023-08-31T13:13:25;21.70;55.30
81951;DHT22;71452;52.562;5.642;2023-08-31T13:15:57;21.70;55.00
81951;DHT22;71452;52.562;5.642;2023-08-31T13:18:26;21.70;55.80
81951;DHT22;71452;52.562;5.642;2023-08-31T13:20:55;21.70;55.70
81951;DHT22;71452;52.562;5.642;2023-08-31T13:23:24;21.70;55.80
81951;DHT22;71452;52.562;5.642;2023-08-31T13:25:53;21.80;55.50
81951;DHT22;71452;52.562;5.642;2023-08-31T13:28:22;21.80;55.20
81951;DHT22;71452;52.562;5.642;2023-08-31T13:30:58;21.80;54.80
81951;DHT22;71452;52.562;5.642;2023-08-31T13:33:27;21.90;54.30
81951;DHT22;71452;52.562;5.642;2023-08-31T13:35:57;21.90;53.20
81951;DHT22;71452;52.562;5.642;2023-08-31T13:38:26;21.90;53.50
81951;DHT22;71452;52.562;5.642;2023-08-31T13:40:55;21.90;53.10
81951;DHT22;71452;52.562;5.642;2023-08-31T13:43:25;21.90;53.80
81951;DHT22;71452;52.562;5.642;2023-08-31T13:45:56;21.90;54.00
81951;DHT22;71452;52.562;5.642;2023-08-31T13:48:25;22.00;53.80
81951;DHT22;71452;52.562;5.642;2023-08-31T13:50:54;21.90;54.00
81951;DHT22;71452;52.562;5.642;2023-08-31T13:53:23;21.90;54.00
81951;DHT22;71452;52.562;5.642;2023-08-31T13:55:53;21.90;53.90
81951;DHT22;71452;52.562;5.642;2023-08-31T13:58:22;21.90;53.60
81951;DHT22;71452;52.562;5.642;2023-08-31T14:00:51;21.80;53.70
81951;DHT22;71452;52.562;5.642;2023-08-31T14:03:22;21.70;53.70
81951;DHT22;71452;52.562;5.642;2023-08-31T14:05:52;21.70;53.50
81951;DHT22;71452;52.562;5.642;2023-08-31T14:08:21;21.70;53.20
81951;DHT22;71452;52.562;5.642;2023-08-31T14:10:50;21.60;53.50
81951;DHT22;71452;52.562;5.642;2023-08-31T14:13:22;21.50;53.70
81951;DHT22;71452;52.562;5.642;2023-08-31T14:15:51;21.50;54.20
81951;DHT22;71452;52.562;5.642;2023-08-31T14:18:22;21.50;53.50
81951;DHT22;71452;52.562;5.642;2023-08-31T14:20:51;21.50;53.80
81951;DHT22;71452;52.562;5.642;2023-08-31T14:23:20;21.60;53.80
81951;DHT22;71452;52.562;5.642;2023-08-31T14:25:49;21.70;53.80
81951;DHT22;71452;52.562;5.642;2023-08-31T14:28:19;21.70;53.80
81951;DHT22;71452;52.562;5.642;2023-08-31T14:30:48;21.70;53.80
81951;DHT22;71452;52.562;5.642;2023-08-31T14:33:17;21.70;53.90
81951;DHT22;71452;52.562;5.642;2023-08-31T14:35:49;21.70;54.10
81951;DHT22;71452;52.562;5.642;2023-08-31T14:38:21;21.70;53.70
81951;DHT22;71452;52.562;5.642;2023-08-31T14:40:51;21.70;53.40
81951;DHT22;71452;52.562;5.642;2023-08-31T14:43:20;21.70;53.70
81951;DHT22;71452;52.562;5.642;2023-08-31T14:45:49;21.70;53.10
81951;DHT22;71452;52.562;5.642;2023-08-31T14:48:18;21.50;53.20
81951;DHT22;71452;52.562;5.642;2023-08-31T14:50:50;21.50;53.70
81951;DHT22;71452;52.562;5.642;2023-08-31T14:53:19;21.50;53.60
81951;DHT22;71452;52.562;5.642;2023-08-31T14:55:49;21.50;53.60
81951;DHT22;71452;52.562;5.642;2023-08-31T14:58:18;21.50;53.30
81951;DHT22;71452;52.562;5.642;2023-08-31T15:00:47;21.40;53.60
81951;DHT22;71452;52.562;5.642;2023-08-31T15:03:17;21.40;54.00
81951;DHT22;71452;52.562;5.642;2023-08-31T15:05:51;21.40;53.30
81951;DHT22;71452;52.562;5.642;2023-08-31T15:08:23;21.40;53.50
81951;DHT22;71452;52.562;5.642;2023-08-31T15:11:03;21.40;53.70
81951;DHT22;71452;52.562;5.642;2023-08-31T15:13:32;21.40;53.60
81951;DHT22;71452;52.562;5.642;2023-08-31T15:16:02;21.40;53.70
81951;DHT22;71452;52.562;5.642;2023-08-31T15:18:31;21.40;53.40
81951;DHT22;71452;52.562;5.642;2023-08-31T15:21:02;21.40;52.90
81951;DHT22;71452;52.562;5.642;2023-08-31T15:23:31;21.30;53.20
81951;DHT22;71452;52.562;5.642;2023-08-31T15:26:01;21.30;53.20
81951;DHT22;71452;52.562;5.642;2023-08-31T15:28:31;21.20;53.40
81951;DHT22;71452;52.562;5.642;2023-08-31T15:31:00;21.30;53.00
81951;DHT22;71452;52.562;5.642;2023-08-31T15:33:30;21.30;52.40
81951;DHT22;71452;52.562;5.642;2023-08-31T15:36:06;21.20;52.80
81951;DHT22;71452;52.562;5.642;2023-08-31T15:38:36;21.20;52.80
81951;DHT22;71452;52.562;5.642;2023-08-31T15:41:06;21.10;51.80
81951;DHT22;71452;52.562;5.642;2023-08-31T15:43:36;21.10;51.20
81951;DHT22;71452;52.562;5.642;2023-08-31T15:46:05;21.10;51.10
81951;DHT22;71452;52.562;5.642;2023-08-31T15:48:34;21.10;51.40
81951;DHT22;71452;52.562;5.642;2023-08-31T15:51:06;21.00;51.60